MSC Florentina — HPFH — position and weather

sailwx.info

Track history (hours):
 
Tides and Currents Weather Stations Pressure Air Temp Water Temp Dewpoint Dewpoint Depression Visibility Wind Speed Wind Dir Waves Ship Positions

MSC Florentina

Last reported at 2017-Sep-17 05:08 UTC. Time now 2017-Sep-21 01:52 UTC.
Position N 13°58' W 060°28'.

Length 300 m; draft 9.6 m.

Type: Ship (hazmat cat A). MMSI: 352870000.

Date/timePositionNaut miles runAvg speedWind from/ knotsBaromVisibWave heightAir tempDewpointWater temp
2017-Sep-17 05:08N 13°58' W 060°28'419.9
2017-Sep-17 04:57N 13°60' W 060°31'919.8
2017-Sep-17 04:29N 14°04' W 060°39'1019.7
2017-Sep-17 04:00N 14°09' W 060°48'1020.0
2017-Sep-17 03:30N 14°14' W 060°57'1020.2
2017-Sep-17 03:00N 14°19' W 061°06'  
2017-Sep-07 14:47N 36°47' W 075°43'1119.1
2017-Sep-07 14:13N 36°53' W 075°54'316.3
2017-Sep-07 14:00N 36°56' W 075°57'510.0
2017-Sep-07 13:30N 36°60' W 076°01'1116.5
2017-Sep-07 12:50N 37°09' W 076°09'4817.5
2017-Sep-07 10:04N 37°57' W 076°10'520.2
2017-Sep-07 09:51N 38°01' W 076°13'820.1
2017-Sep-07 09:26N 38°10' W 076°14'920.1
2017-Sep-07 08:59N 38°18' W 076°17'1020.0
2017-Sep-07 08:29N 38°27' W 076°23'1018.8
2017-Sep-07 07:57N 38°37' W 076°25'819.2
2017-Sep-07 07:30N 38°46' W 076°26'1020.0
2017-Sep-07 07:01N 38°55' W 076°23'816.2
2017-Sep-07 06:30N 39°03' W 076°23'612.9
2017-Sep-07 06:00N 39°10' W 076°25'611.6
2017-Sep-07 05:30N 39°13' W 076°32'  
Track history (hours):
 
Tides and Currents Weather Stations Pressure Air Temp Water Temp Dewpoint Dewpoint Depression Visibility Wind Speed Wind Dir Waves Ship Positions

MSC Florentina

Last reported at 2017-Sep-17 05:08 UTC. Time now 2017-Sep-21 01:52 UTC.
Position N 13°58' W 060°28'.

Length 300 m; draft 9.6 m.

Type: Ship (hazmat cat A). MMSI: 352870000.

Date/timePositionNaut miles runAvg speedWind from/ knotsBaromVisibWave heightAir tempDewpointWater temp
2017-Sep-17 05:08N 13°58' W 060°28'419.9
2017-Sep-17 04:57N 13°60' W 060°31'919.8
2017-Sep-17 04:29N 14°04' W 060°39'1019.7
2017-Sep-17 04:00N 14°09' W 060°48'1020.0
2017-Sep-17 03:30N 14°14' W 060°57'1020.2
2017-Sep-17 03:00N 14°19' W 061°06'  
2017-Sep-07 14:47N 36°47' W 075°43'1119.1
2017-Sep-07 14:13N 36°53' W 075°54'316.3
2017-Sep-07 14:00N 36°56' W 075°57'510.0
2017-Sep-07 13:30N 36°60' W 076°01'1116.5
2017-Sep-07 12:50N 37°09' W 076°09'4817.5
2017-Sep-07 10:04N 37°57' W 076°10'520.2
2017-Sep-07 09:51N 38°01' W 076°13'820.1
2017-Sep-07 09:26N 38°10' W 076°14'920.1
2017-Sep-07 08:59N 38°18' W 076°17'1020.0
2017-Sep-07 08:29N 38°27' W 076°23'1018.8
2017-Sep-07 07:57N 38°37' W 076°25'819.2
2017-Sep-07 07:30N 38°46' W 076°26'1020.0
2017-Sep-07 07:01N 38°55' W 076°23'816.2
2017-Sep-07 06:30N 39°03' W 076°23'612.9
2017-Sep-07 06:00N 39°10' W 076°25'611.6
2017-Sep-07 05:30N 39°13' W 076°32'  

Dump ship's entire track history